Αναφορές Αεροδρομίων

 

KSJC - San Jose, California, USA
Distance from station: ΒΑ 14km
Ενημερώθηκε: 01/10/2022 06:53
Αίθριος
Αίθριος
 Ανεμος από ΔΒΔ
Ανεμος: ΔΒΔ 13 km/h
Θερμοκρασία: 20°C
Σημείο Δρόσου: 12°C
Υγρασία: 60%
Βαρόμετρο: 1008.8 hPa
Clouds: Αίθριος
Visibility: 16 km
2022/10/01 03:53 KSJC 010353Z 29007KT 10SM CLR 20/12 A2979 RMK AO2 SLP088 T02000122 $
KNUQ - Moffett Nas/Mtn, California, USA
Distance from station: Β 14km
Ενημερώθηκε: 01/10/2022 06:55
Αίθριος
Αίθριος
 Ανεμος από calm
Ανεμος: Απνοια
Θερμοκρασία: 18°C
Σημείο Δρόσου: 15°C
Υγρασία: 83%
Βαρόμετρο: 1009.1 hPa
Clouds: Αίθριος
Visibility: 16 km
2022/10/01 03:55 KNUQ 010355Z AUTO 00000KT 10SM CLR 18/15 A2980 RMK AO2
 
KPAO - Palo Alto, California, USA
Distance from station: ΒΒΔ 23km
Ενημερώθηκε: 01/10/2022 06:47
Αίθριος
Αίθριος
 Ανεμος από ΒΔ
Ανεμος: ΒΔ 11 km/h
Θερμοκρασία: 17°C
Σημείο Δρόσου: 14°C
Υγρασία: 83%
Βαρόμετρο: 1009.1 hPa
Clouds: Αίθριος
Visibility: 16 km
2022/10/01 03:47 KPAO 010347Z 32006KT 10SM SKC 17/14 A2980 RMK LAST
KRHV - San Jose/Reid, California, USA
Distance from station: ΑΒΑ 19km
Ενημερώθηκε: 01/10/2022 06:47
Αίθριος
Αίθριος
 Ανεμος από Δ
Ανεμος: Δ 7 km/h
Θερμοκρασία: 21°C
Σημείο Δρόσου: 12°C
Υγρασία: 57%
Βαρόμετρο: 1009.1 hPa
Clouds: Αίθριος
Visibility: 16 km
2022/10/01 03:47 KRHV 010347Z 26004KT 10SM SKC 21/12 A2980
 
KOAK - Oakland, California, USA
Distance from station: ΒΒΔ 50km
Ενημερώθηκε: 01/10/2022 06:53
Few Clouds
Few Clouds
 Ανεμος από ΒΔ
Ανεμος: ΒΔ 11 km/h
Θερμοκρασία: 16°C
Σημείο Δρόσου: 13°C
Υγρασία: 83%
Βαρόμετρο: 1009.1 hPa
Clouds: Few Clouds
Visibility: 16 km
Cloud details: Few Clouds 305 m
2022/10/01 03:53 KOAK 010353Z 32006KT 10SM FEW010 16/13 A2980 RMK AO2 SLP091 T01560128
KSQL - San Carlos Airpo, California, USA
Distance from station: ΒΔ 34km
Ενημερώθηκε: 01/10/2022 06:47
Αίθριος
Αίθριος
 Ανεμος από calm
Ανεμος: Απνοια
Θερμοκρασία: 18°C
Σημείο Δρόσου: 13°C
Υγρασία: 73%
Βαρόμετρο: 1009.1 hPa
Clouds: Αίθριος
Visibility: 16 km
2022/10/01 03:47 KSQL 010347Z 00000KT 10SM CLR 18/13 A2980 RMK LAST
 
KSFO - San Francisco, California, USA
Distance from station: ΒΔ 49km
Ενημερώθηκε: 01/10/2022 06:56
Few Clouds
Few Clouds
 Ανεμος από ΒΔ
Ανεμος: ΒΔ 24 km/h
Θερμοκρασία: 14°C
Σημείο Δρόσου: 13°C
Υγρασία: 94%
Βαρόμετρο: 1008.8 hPa
Clouds: Few Clouds
Visibility: 16 km
Cloud details: Few Clouds 91 m
2022/10/01 03:56 KSFO 010356Z 31013KT 10SM FEW003 14/13 A2979 RMK AO2 SLP088 T01440128
KE16 - San Martin, California, USA
Distance from station: ΑΝΑ 43km
Ενημερώθηκε: 01/10/2022 06:55
Few Clouds
Few Clouds
 Ανεμος από ΝΑ
Ανεμος: ΝΑ 9 km/h
Θερμοκρασία: 14°C
Σημείο Δρόσου: 13°C
Υγρασία: 94%
Βαρόμετρο: 1010.5 hPa
Clouds: Few Clouds
Visibility: 16 km
Cloud details: Few Clouds 1189 m
2022/10/01 03:55 KE16 010355Z AUTO 13005KT 10SM FEW039 14/13 A2984 RMK AO2 PWINO PNO
 
KWVI - Watsonville, California, USA
Distance from station: ΝΝΑ 44km
Ενημερώθηκε: 01/10/2022 06:53
Mist, Συννεφιά
Mist, Συννεφιά
 Ανεμος από ΝΔ
Ανεμος: ΝΔ 7 km/h
Θερμοκρασία: 13°C
Σημείο Δρόσου: 13°C
Υγρασία: 100%
Βαρόμετρο: 1010.5 hPa
Περίληψη: Mist
Clouds: Συννεφιά
Visibility: 5 km
Cloud details: Συννεφιά 61 m
2022/10/01 03:53 KWVI 010353Z AUTO 22004KT 3SM BR OVC002 13/13 A2984 RMK AO2 SLP104 T01280128
KHAF - Half Moon Bay, California, USA
Distance from station: ΔΒΔ 50km
Ενημερώθηκε: 01/10/2022 06:55
Fog, Συννεφιά
Fog, Συννεφιά
 Ανεμος από Ν
Ανεμος: Ν 11 km/h
Θερμοκρασία: 13°C
Σημείο Δρόσου: 13°C
Υγρασία: 100%
Βαρόμετρο: 1010.2 hPa
Περίληψη: Fog
Clouds: Συννεφιά
Visibility: 0.4 km
Cloud details: Συννεφιά 61 m
2022/10/01 03:55 KHAF 010355Z AUTO 19006KT 1/4SM FG OVC002 13/13 A2983 RMK AO2
 
KHWD - Hayward, California, USA
Distance from station: Β 44km
Ενημερώθηκε: 01/10/2022 06:54
Αίθριος
Αίθριος
 Ανεμος από ΔΒΔ
Ανεμος: ΔΒΔ 11 km/h
Θερμοκρασία: 17°C
Σημείο Δρόσου: 13°C
Υγρασία: 77%
Βαρόμετρο: 1008.8 hPa
Clouds: Αίθριος
Visibility: 16 km
2022/10/01 03:54 KHWD 010354Z 30006KT 10SM CLR 17/13 A2979 RMK AO2 SLP097 T01670128
KLVK - Livermore, California, USA
Distance from station: ΒΒΑ 51km
Ενημερώθηκε: 01/10/2022 06:53
Αίθριος
Αίθριος
 Ανεμος από ΔΒΔ
Ανεμος: ΔΒΔ 9 km/h
Θερμοκρασία: 22°C
Σημείο Δρόσου: 8°C
Υγρασία: 41%
Βαρόμετρο: 1008.1 hPa
Clouds: Αίθριος
Visibility: 16 km
2022/10/01 03:53 KLVK 010353Z 30005KT 10SM CLR 22/08 A2977 RMK AO2 SLP078 T02220078